sensor_id;sensor_type;location;lat;lon;timestamp;pressure;altitude;pressure_sealevel;temperature;humidity
78855;BME280;68206;59.956;30.234;2023-05-20T00:01:14;103090.31;;;10.47;62.19
78855;BME280;68206;59.956;30.234;2023-05-20T00:03:42;103093.84;;;10.46;62.09
78855;BME280;68206;59.956;30.234;2023-05-20T00:06:10;103099.13;;;10.46;62.51
78855;BME280;68206;59.956;30.234;2023-05-20T00:08:38;103095.63;;;10.47;62.57
78855;BME280;68206;59.956;30.234;2023-05-20T00:11:07;103092.91;;;10.44;62.71
78855;BME280;68206;59.956;30.234;2023-05-20T00:13:35;103092.91;;;10.44;62.13
78855;BME280;68206;59.956;30.234;2023-05-20T00:16:04;103096.47;;;10.46;63.18
78855;BME280;68206;59.956;30.234;2023-05-20T00:18:33;103092.97;;;10.47;62.38
78855;BME280;68206;59.956;30.234;2023-05-20T00:21:01;103097.38;;;10.46;63.28
78855;BME280;68206;59.956;30.234;2023-05-20T00:23:29;103097.34;;;10.45;62.64
78855;BME280;68206;59.956;30.234;2023-05-20T00:25:57;103092.91;;;10.44;63.17
78855;BME280;68206;59.956;30.234;2023-05-20T00:28:26;103103.53;;;10.42;63.49
78855;BME280;68206;59.956;30.234;2023-05-20T00:30:56;103093.78;;;10.40;63.30
78855;BME280;68206;59.956;30.234;2023-05-20T00:33:24;103099.97;;;10.40;63.27
78855;BME280;68206;59.956;30.234;2023-05-20T00:35:53;103097.31;;;10.39;64.20
78855;BME280;68206;59.956;30.234;2023-05-20T00:38:21;103099.94;;;10.39;64.16
78855;BME280;68206;59.956;30.234;2023-05-20T00:40:49;103094.63;;;10.37;64.10
78855;BME280;68206;59.956;30.234;2023-05-20T00:43:18;103101.72;;;10.38;64.09
78855;BME280;68206;59.956;30.234;2023-05-20T00:45:46;103102.59;;;10.39;64.95
78855;BME280;68206;59.956;30.234;2023-05-20T00:48:14;103097.28;;;10.37;65.04
78855;BME280;68206;59.956;30.234;2023-05-20T00:50:43;103101.72;;;10.37;65.01
78855;BME280;68206;59.956;30.234;2023-05-20T00:53:13;103099.94;;;10.36;64.73
78855;BME280;68206;59.956;30.234;2023-05-20T00:55:44;103099.06;;;10.37;65.04
78855;BME280;68206;59.956;30.234;2023-05-20T00:58:12;103100.84;;;10.36;65.75
78855;BME280;68206;59.956;30.234;2023-05-20T01:00:41;103108.78;;;10.36;66.21
78855;BME280;68206;59.956;30.234;2023-05-20T01:03:09;103103.47;;;10.38;65.67
78855;BME280;68206;59.956;30.234;2023-05-20T01:05:38;103107.88;;;10.37;66.12
78855;BME280;68206;59.956;30.234;2023-05-20T01:08:08;103118.53;;;10.39;65.67
78855;BME280;68206;59.956;30.234;2023-05-20T01:10:40;103117.63;;;10.38;66.04
78855;BME280;68206;59.956;30.234;2023-05-20T01:13:11;103111.44;;;10.38;66.59
78855;BME280;68206;59.956;30.234;2023-05-20T01:15:43;103118.53;;;10.39;66.47
78855;BME280;68206;59.956;30.234;2023-05-20T01:18:14;103119.41;;;10.39;66.25
78855;BME280;68206;59.956;30.234;2023-05-20T01:20:45;103114.13;;;10.41;66.56
78855;BME280;68206;59.956;30.234;2023-05-20T01:23:18;103127.41;;;10.44;66.59
78855;BME280;68206;59.956;30.234;2023-05-20T01:25:46;103123.94;;;10.48;66.53
78855;BME280;68206;59.956;30.234;2023-05-20T01:28:14;103126.59;;;10.51;66.85
78855;BME280;68206;59.956;30.234;2023-05-20T01:30:47;103120.41;;;10.52;67.36
78855;BME280;68206;59.956;30.234;2023-05-20T01:33:19;103123.97;;;10.54;68.05
78855;BME280;68206;59.956;30.234;2023-05-20T01:35:47;103132.88;;;10.62;67.13
78855;BME280;68206;59.956;30.234;2023-05-20T01:38:18;103120.56;;;10.70;67.38
78855;BME280;68206;59.956;30.234;2023-05-20T01:40:46;103124.16;;;10.74;67.21
78855;BME280;68206;59.956;30.234;2023-05-20T01:43:16;103125.09;;;10.82;66.53
78855;BME280;68206;59.956;30.234;2023-05-20T01:45:44;103128.69;;;10.88;66.50
78855;BME280;68206;59.956;30.234;2023-05-20T01:48:12;103122.53;;;10.96;66.25
78855;BME280;68206;59.956;30.234;2023-05-20T01:50:40;103124.38;;;11.03;66.37
78855;BME280;68206;59.956;30.234;2023-05-20T01:53:09;103125.31;;;11.11;65.89
78855;BME280;68206;59.956;30.234;2023-05-20T01:55:42;103128.91;;;11.22;66.51
78855;BME280;68206;59.956;30.234;2023-05-20T01:58:10;103133.41;;;11.33;65.98
78855;BME280;68206;59.956;30.234;2023-05-20T02:00:38;103136.13;;;11.46;66.07
78855;BME280;68206;59.956;30.234;2023-05-20T02:03:06;103135.28;;;11.56;65.23
78855;BME280;68206;59.956;30.234;2023-05-20T02:05:35;103143.34;;;11.71;64.97
78855;BME280;68206;59.956;30.234;2023-05-20T02:08:04;103138.13;;;11.83;64.75
78855;BME280;68206;59.956;30.234;2023-05-20T02:10:32;103140.81;;;12.00;63.53
78855;BME280;68206;59.956;30.234;2023-05-20T02:13:02;103140.91;;;12.21;62.97
78855;BME280;68206;59.956;30.234;2023-05-20T02:15:31;103148.03;;;12.43;62.81
78855;BME280;68206;59.956;30.234;2023-05-20T02:17:59;103134.75;;;12.66;62.18
78855;BME280;68206;59.956;30.234;2023-05-20T02:20:28;103151.63;;;12.91;60.89
78855;BME280;68206;59.956;30.234;2023-05-20T02:22:56;103143.63;;;13.14;60.83
78855;BME280;68206;59.956;30.234;2023-05-20T02:25:24;103148.00;;;13.38;60.04
78855;BME280;68206;59.956;30.234;2023-05-20T02:27:52;103154.19;;;13.56;59.48
78855;BME280;68206;59.956;30.234;2023-05-20T02:30:21;103146.13;;;13.76;59.11
78855;BME280;68206;59.956;30.234;2023-05-20T02:32:50;103159.38;;;13.99;58.52
78855;BME280;68206;59.956;30.234;2023-05-20T02:35:18;103157.47;;;14.21;58.26
78855;BME280;68206;59.956;30.234;2023-05-20T02:37:47;103162.72;;;14.42;57.03
78855;BME280;68206;59.956;30.234;2023-05-20T02:40:15;103148.31;;;14.63;56.40
78855;BME280;68206;59.956;30.234;2023-05-20T02:42:44;103153.47;;;14.85;55.77
78855;BME280;68206;59.956;30.234;2023-05-20T02:45:13;103159.50;;;15.06;54.75
78855;BME280;68206;59.956;30.234;2023-05-20T02:47:42;103153.06;;;15.29;54.02
78855;BME280;68206;59.956;30.234;2023-05-20T02:50:11;103156.34;;;15.56;53.63
78855;BME280;68206;59.956;30.234;2023-05-20T02:52:39;103157.72;;;15.89;52.04
78855;BME280;68206;59.956;30.234;2023-05-20T02:55:08;103158.91;;;16.34;51.09
78855;BME280;68206;59.956;30.234;2023-05-20T02:57:37;103163.50;;;16.84;49.73
78855;BME280;68206;59.956;30.234;2023-05-20T03:00:08;103168.53;;;17.50;47.80
78855;BME280;68206;59.956;30.234;2023-05-20T03:02:37;103166.09;;;18.25;46.24
78855;BME280;68206;59.956;30.234;2023-05-20T03:05:08;103158.13;;;18.96;44.29
78855;BME280;68206;59.956;30.234;2023-05-20T03:07:36;103165.97;;;19.71;42.91
78855;BME280;68206;59.956;30.234;2023-05-20T03:10:06;103158.00;;;20.55;40.89
78855;BME280;68206;59.956;30.234;2023-05-20T03:12:37;103165.72;;;21.45;39.05
78855;BME280;68206;59.956;30.234;2023-05-20T03:15:08;103164.19;;;22.32;37.33
78855;BME280;68206;59.956;30.234;2023-05-20T03:17:36;103165.28;;;22.93;35.85
78855;BME280;68206;59.956;30.234;2023-05-20T03:20:06;103174.84;;;23.43;34.53
78855;BME280;68206;59.956;30.234;2023-05-20T03:22:36;103175.19;;;23.76;33.57
78855;BME280;68206;59.956;30.234;2023-05-20T03:25:04;103176.69;;;24.01;32.80
78855;BME280;68206;59.956;30.234;2023-05-20T03:27:33;103177.38;;;24.25;32.21
78855;BME280;68206;59.956;30.234;2023-05-20T03:30:03;103190.16;;;24.42;31.76
78855;BME280;68206;59.956;30.234;2023-05-20T03:32:32;103172.91;;;24.24;31.54
78855;BME280;68206;59.956;30.234;2023-05-20T03:35:00;103177.00;;;24.51;31.37
78855;BME280;68206;59.956;30.234;2023-05-20T03:37:29;103187.34;;;24.43;31.62
78855;BME280;68206;59.956;30.234;2023-05-20T03:39:58;103178.84;;;24.51;31.38
78855;BME280;68206;59.956;30.234;2023-05-20T03:42:27;103185.00;;;24.55;30.50
78855;BME280;68206;59.956;30.234;2023-05-20T03:44:55;103180.75;;;24.30;30.74
78855;BME280;68206;59.956;30.234;2023-05-20T03:47:29;103178.97;;;24.10;31.06
78855;BME280;68206;59.956;30.234;2023-05-20T03:49:58;103185.28;;;24.11;31.05
78855;BME280;68206;59.956;30.234;2023-05-20T03:52:26;103180.84;;;24.47;30.58
78855;BME280;68206;59.956;30.234;2023-05-20T03:54:55;103188.53;;;24.74;30.58
78855;BME280;68206;59.956;30.234;2023-05-20T03:57:25;103188.00;;;24.67;30.88
78855;BME280;68206;59.956;30.234;2023-05-20T03:59:55;103177.16;;;24.84;30.13
78855;BME280;68206;59.956;30.234;2023-05-20T04:02:23;103183.50;;;25.37;29.35
78855;BME280;68206;59.956;30.234;2023-05-20T04:04:51;103180.06;;;25.50;29.52
78855;BME280;68206;59.956;30.234;2023-05-20T04:07:23;103189.91;;;26.19;28.83
78855;BME280;68206;59.956;30.234;2023-05-20T04:09:51;103171.13;;;26.61;28.27
78855;BME280;68206;59.956;30.234;2023-05-20T04:12:19;103178.53;;;26.91;27.40
78855;BME280;68206;59.956;30.234;2023-05-20T04:14:49;103189.69;;;27.16;27.76
78855;BME280;68206;59.956;30.234;2023-05-20T04:17:18;103181.38;;;27.33;26.81
78855;BME280;68206;59.956;30.234;2023-05-20T04:19:46;103182.16;;;27.49;26.45
78855;BME280;68206;59.956;30.234;2023-05-20T04:22:14;103183.38;;;27.74;26.32
78855;BME280;68206;59.956;30.234;2023-05-20T04:24:43;103184.31;;;28.17;25.56
78855;BME280;68206;59.956;30.234;2023-05-20T04:27:11;103189.91;;;28.42;25.46
78855;BME280;68206;59.956;30.234;2023-05-20T04:29:40;103183.28;;;28.73;24.57
78855;BME280;68206;59.956;30.234;2023-05-20T04:32:15;103188.75;;;29.39;24.20
78855;BME280;68206;59.956;30.234;2023-05-20T04:34:44;103189.41;;;29.68;23.63
78855;BME280;68206;59.956;30.234;2023-05-20T04:37:14;103189.84;;;29.62;23.50
78855;BME280;68206;59.956;30.234;2023-05-20T04:39:42;103185.50;;;29.72;22.99
78855;BME280;68206;59.956;30.234;2023-05-20T04:42:14;103185.47;;;30.10;22.12
78855;BME280;68206;59.956;30.234;2023-05-20T04:44:44;103179.41;;;30.67;21.63
78855;BME280;68206;59.956;30.234;2023-05-20T04:47:15;103178.38;;;31.04;20.98
78855;BME280;68206;59.956;30.234;2023-05-20T04:49:43;103181.19;;;31.38;20.68
78855;BME280;68206;59.956;30.234;2023-05-20T04:52:12;103183.84;;;31.50;20.15
78855;BME280;68206;59.956;30.234;2023-05-20T04:54:40;103180.28;;;31.72;20.23
78855;BME280;68206;59.956;30.234;2023-05-20T04:57:08;103182.03;;;31.84;19.49
78855;BME280;68206;59.956;30.234;2023-05-20T04:59:37;103189.22;;;31.52;19.83
78855;BME280;68206;59.956;30.234;2023-05-20T05:02:05;103187.91;;;31.22;19.91
78855;BME280;68206;59.956;30.234;2023-05-20T05:04:34;103188.81;;;31.34;19.60
78855;BME280;68206;59.956;30.234;2023-05-20T05:07:02;103190.78;;;31.32;19.78
78855;BME280;68206;59.956;30.234;2023-05-20T05:09:31;103187.41;;;31.29;20.08
78855;BME280;68206;59.956;30.234;2023-05-20T05:12:01;103183.19;;;31.36;19.98
78855;BME280;68206;59.956;30.234;2023-05-20T05:14:29;103185.56;;;31.40;19.72
78855;BME280;68206;59.956;30.234;2023-05-20T05:16:57;103190.19;;;31.40;19.83
78855;BME280;68206;59.956;30.234;2023-05-20T05:19:26;103186.06;;;31.45;19.46
78855;BME280;68206;59.956;30.234;2023-05-20T05:21:55;103196.50;;;31.75;19.46
78855;BME280;68206;59.956;30.234;2023-05-20T05:24:24;103185.66;;;32.07;19.55
78855;BME280;68206;59.956;30.234;2023-05-20T05:26:52;103191.78;;;32.33;18.81
78855;BME280;68206;59.956;30.234;2023-05-20T05:29:21;103184.66;;;32.85;18.52
78855;BME280;68206;59.956;30.234;2023-05-20T05:31:49;103187.50;;;32.94;18.80
78855;BME280;68206;59.956;30.234;2023-05-20T05:34:17;103185.16;;;33.21;17.88
78855;BME280;68206;59.956;30.234;2023-05-20T05:36:45;103183.41;;;33.20;18.16
78855;BME280;68206;59.956;30.234;2023-05-20T05:39:15;103186.88;;;33.64;17.75
78855;BME280;68206;59.956;30.234;2023-05-20T05:41:43;103189.72;;;34.14;16.91
78855;BME280;68206;59.956;30.234;2023-05-20T05:44:11;103191.72;;;34.42;16.65
78855;BME280;68206;59.956;30.234;2023-05-20T05:46:40;103179.41;;;34.46;16.77
78855;BME280;68206;59.956;30.234;2023-05-20T05:49:09;103193.38;;;34.73;16.69
78855;BME280;68206;59.956;30.234;2023-05-20T05:51:37;103187.75;;;35.04;15.88
78855;BME280;68206;59.956;30.234;2023-05-20T05:54:06;103180.03;;;35.17;15.84
78855;BME280;68206;59.956;30.234;2023-05-20T05:56:35;103177.72;;;35.41;15.63
78855;BME280;68206;59.956;30.234;2023-05-20T05:59:04;103182.97;;;35.15;15.53
78855;BME280;68206;59.956;30.234;2023-05-20T06:01:32;103180.16;;;35.54;15.86
78855;BME280;68206;59.956;30.234;2023-05-20T06:04:00;103185.63;;;35.73;15.11
78855;BME280;68206;59.956;30.234;2023-05-20T06:06:30;103184.22;;;35.59;15.46
78855;BME280;68206;59.956;30.234;2023-05-20T06:08:58;103185.94;;;35.70;14.94
78855;BME280;68206;59.956;30.234;2023-05-20T06:11:27;103175.31;;;35.66;14.82
78855;BME280;68206;59.956;30.234;2023-05-20T06:13:56;103184.59;;;35.84;14.83
78855;BME280;68206;59.956;30.234;2023-05-20T06:16:26;103177.59;;;35.33;14.95
78855;BME280;68206;59.956;30.234;2023-05-20T06:18:57;103171.75;;;35.46;15.32
78855;BME280;68206;59.956;30.234;2023-05-20T06:21:30;103167.19;;;36.01;15.22
78855;BME280;68206;59.956;30.234;2023-05-20T06:23:59;103177.63;;;36.07;14.59
78855;BME280;68206;59.956;30.234;2023-05-20T06:26:27;103169.63;;;35.67;14.36
78855;BME280;68206;59.956;30.234;2023-05-20T06:28:57;103176.44;;;35.82;14.62
78855;BME280;68206;59.956;30.234;2023-05-20T06:31:26;103172.50;;;34.71;15.02
78855;BME280;68206;59.956;30.234;2023-05-20T06:33:56;103181.88;;;34.49;15.54
78855;BME280;68206;59.956;30.234;2023-05-20T06:36:26;103176.81;;;34.14;16.24
78855;BME280;68206;59.956;30.234;2023-05-20T06:38:54;103180.31;;;33.86;16.41
78855;BME280;68206;59.956;30.234;2023-05-20T06:41:23;103177.34;;;34.38;16.01
78855;BME280;68206;59.956;30.234;2023-05-20T06:43:52;103174.84;;;34.85;15.98
78855;BME280;68206;59.956;30.234;2023-05-20T06:46:40;103176.84;;;34.93;14.90
78855;BME280;68206;59.956;30.234;2023-05-20T06:49:12;103176.53;;;34.57;16.04
78855;BME280;68206;59.956;30.234;2023-05-20T06:51:40;103177.34;;;34.38;16.16
78855;BME280;68206;59.956;30.234;2023-05-20T06:54:09;103177.97;;;34.61;16.34
78855;BME280;68206;59.956;30.234;2023-05-20T06:56:41;103172.53;;;34.90;15.77
78855;BME280;68206;59.956;30.234;2023-05-20T06:59:11;103177.00;;;35.30;15.40
78855;BME280;68206;59.956;30.234;2023-05-20T07:01:40;103176.53;;;35.53;15.38
78855;BME280;68206;59.956;30.234;2023-05-20T07:04:08;103178.59;;;35.88;14.85
78855;BME280;68206;59.956;30.234;2023-05-20T07:06:37;103180.66;;;36.14;15.04
78855;BME280;68206;59.956;30.234;2023-05-20T07:09:05;103179.41;;;36.35;14.49
78855;BME280;68206;59.956;30.234;2023-05-20T07:11:33;103183.06;;;36.54;14.08
78855;BME280;68206;59.956;30.234;2023-05-20T07:14:01;103178.16;;;36.48;13.72
78855;BME280;68206;59.956;30.234;2023-05-20T07:16:30;103175.56;;;35.91;14.63
78855;BME280;68206;59.956;30.234;2023-05-20T07:19:02;103183.59;;;35.75;14.60
78855;BME280;68206;59.956;30.234;2023-05-20T07:21:32;103182.19;;;35.52;14.77
78855;BME280;68206;59.956;30.234;2023-05-20T07:24:11;103185.78;;;35.62;14.73
78855;BME280;68206;59.956;30.234;2023-05-20T07:26:39;103187.22;;;35.76;14.25
78855;BME280;68206;59.956;30.234;2023-05-20T07:29:08;103178.00;;;35.38;14.37
78855;BME280;68206;59.956;30.234;2023-05-20T07:31:37;103187.00;;;35.31;14.74
78855;BME280;68206;59.956;30.234;2023-05-20T07:34:07;103182.38;;;35.41;14.83
78855;BME280;68206;59.956;30.234;2023-05-20T07:36:36;103173.66;;;35.26;14.74
78855;BME280;68206;59.956;30.234;2023-05-20T07:39:05;103177.72;;;34.93;15.07
78855;BME280;68206;59.956;30.234;2023-05-20T07:41:40;103179.19;;;34.97;14.96
78855;BME280;68206;59.956;30.234;2023-05-20T07:44:09;103175.19;;;34.42;14.87
78855;BME280;68206;59.956;30.234;2023-05-20T07:46:41;103179.81;;;33.50;16.21
78855;BME280;68206;59.956;30.234;2023-05-20T07:49:11;103176.53;;;33.77;15.35
78855;BME280;68206;59.956;30.234;2023-05-20T07:51:39;103178.03;;;33.60;15.98
78855;BME280;68206;59.956;30.234;2023-05-20T07:54:07;103177.59;;;33.65;15.77
78855;BME280;68206;59.956;30.234;2023-05-20T07:56:36;103175.75;;;33.45;16.00
78855;BME280;68206;59.956;30.234;2023-05-20T07:59:05;103167.94;;;33.08;15.75
78855;BME280;68206;59.956;30.234;2023-05-20T08:01:40;103172.09;;;33.03;15.92
78855;BME280;68206;59.956;30.234;2023-05-20T08:04:11;103168.72;;;32.67;16.24
78855;BME280;68206;59.956;30.234;2023-05-20T08:06:40;103162.13;;;32.59;16.16
78855;BME280;68206;59.956;30.234;2023-05-20T08:09:15;103165.66;;;32.38;16.13
78855;BME280;68206;59.956;30.234;2023-05-20T08:11:48;103162.91;;;32.05;16.18
78855;BME280;68206;59.956;30.234;2023-05-20T08:14:16;103151.22;;;31.70;16.71
78855;BME280;68206;59.956;30.234;2023-05-20T08:16:48;103156.59;;;31.25;16.93
78855;BME280;68206;59.956;30.234;2023-05-20T08:19:22;103147.16;;;30.70;17.16
78855;BME280;68206;59.956;30.234;2023-05-20T08:21:50;103151.06;;;30.42;17.67
78855;BME280;68206;59.956;30.234;2023-05-20T08:24:19;103141.88;;;30.43;17.94
78855;BME280;68206;59.956;30.234;2023-05-20T08:26:47;103145.56;;;30.55;17.71
78855;BME280;68206;59.956;30.234;2023-05-20T08:29:17;103142.84;;;30.55;17.63
78855;BME280;68206;59.956;30.234;2023-05-20T08:31:45;103140.97;;;30.19;17.87
78855;BME280;68206;59.956;30.234;2023-05-20T08:34:15;103152.44;;;29.62;19.26
78855;BME280;68206;59.956;30.234;2023-05-20T08:36:45;103143.44;;;29.22;19.07
78855;BME280;68206;59.956;30.234;2023-05-20T08:39:14;103147.50;;;28.36;19.83
78855;BME280;68206;59.956;30.234;2023-05-20T08:41:45;103150.78;;;27.58;20.42
78855;BME280;68206;59.956;30.234;2023-05-20T08:44:13;103138.38;;;26.63;21.77
78855;BME280;68206;59.956;30.234;2023-05-20T08:46:44;103147.41;;;25.85;22.85
78855;BME280;68206;59.956;30.234;2023-05-20T08:49:13;103144.75;;;24.99;24.51
78855;BME280;68206;59.956;30.234;2023-05-20T08:51:41;103148.28;;;24.47;24.73
78855;BME280;68206;59.956;30.234;2023-05-20T08:54:12;103134.41;;;23.97;25.78
78855;BME280;68206;59.956;30.234;2023-05-20T08:56:42;103139.88;;;23.58;26.59
78855;BME280;68206;59.956;30.234;2023-05-20T08:59:11;103147.84;;;23.21;27.54
78855;BME280;68206;59.956;30.234;2023-05-20T09:01:42;103145.94;;;23.03;27.76
78855;BME280;68206;59.956;30.234;2023-05-20T09:04:10;103142.25;;;22.83;27.50
78855;BME280;68206;59.956;30.234;2023-05-20T09:06:42;103141.00;;;22.48;28.89
78855;BME280;68206;59.956;30.234;2023-05-20T09:09:12;103148.91;;;22.09;29.14
78855;BME280;68206;59.956;30.234;2023-05-20T09:11:41;103144.78;;;21.99;29.21
78855;BME280;68206;59.956;30.234;2023-05-20T09:14:09;103142.47;;;21.89;29.25
78855;BME280;68206;59.956;30.234;2023-05-20T09:16:38;103141.13;;;21.77;29.47
78855;BME280;68206;59.956;30.234;2023-05-20T09:19:07;103142.25;;;21.47;30.84
78855;BME280;68206;59.956;30.234;2023-05-20T09:21:36;103140.44;;;21.22;31.28
78855;BME280;68206;59.956;30.234;2023-05-20T09:24:05;103133.28;;;21.21;31.11
78855;BME280;68206;59.956;30.234;2023-05-20T09:26:35;103129.00;;;21.14;32.01
78855;BME280;68206;59.956;30.234;2023-05-20T09:29:03;103122.00;;;21.09;32.11
78855;BME280;68206;59.956;30.234;2023-05-20T09:31:31;103127.88;;;20.95;33.10
78855;BME280;68206;59.956;30.234;2023-05-20T09:34:01;103118.91;;;20.94;33.09
78855;BME280;68206;59.956;30.234;2023-05-20T09:36:30;103125.72;;;20.80;33.49
78855;BME280;68206;59.956;30.234;2023-05-20T09:39:02;103125.94;;;20.74;33.84
78855;BME280;68206;59.956;30.234;2023-05-20T09:41:33;103127.97;;;20.67;33.86
78855;BME280;68206;59.956;30.234;2023-05-20T09:44:04;103126.91;;;20.71;34.34
78855;BME280;68206;59.956;30.234;2023-05-20T09:46:34;103128.69;;;20.72;34.50
78855;BME280;68206;59.956;30.234;2023-05-20T09:49:03;103122.81;;;20.60;34.88
78855;BME280;68206;59.956;30.234;2023-05-20T09:51:34;103123.91;;;20.54;35.24
78855;BME280;68206;59.956;30.234;2023-05-20T09:54:02;103116.78;;;20.51;35.34
78855;BME280;68206;59.956;30.234;2023-05-20T09:56:33;103125.03;;;20.47;35.55
78855;BME280;68206;59.956;30.234;2023-05-20T09:59:03;103118.75;;;20.46;35.62
78855;BME280;68206;59.956;30.234;2023-05-20T10:01:32;103114.34;;;20.44;35.17
78855;BME280;68206;59.956;30.234;2023-05-20T10:04:00;103113.38;;;20.46;35.26
78855;BME280;68206;59.956;30.234;2023-05-20T10:06:43;103129.38;;;20.51;35.01
78855;BME280;68206;59.956;30.234;2023-05-20T10:09:23;103118.56;;;20.52;34.55
78855;BME280;68206;59.956;30.234;2023-05-20T10:12:03;103117.50;;;20.57;34.71
78855;BME280;68206;59.956;30.234;2023-05-20T10:14:45;103119.19;;;20.61;34.73
78855;BME280;68206;59.956;30.234;2023-05-20T10:17:34;103113.56;;;20.40;35.40
78855;BME280;68206;59.956;30.234;2023-05-20T10:20:07;103106.72;;;20.29;35.90
78855;BME280;68206;59.956;30.234;2023-05-20T10:22:38;103104.34;;;20.18;36.69
78855;BME280;68206;59.956;30.234;2023-05-20T10:25:11;103118.03;;;20.12;37.00
78855;BME280;68206;59.956;30.234;2023-05-20T10:27:43;103108.94;;;20.16;37.01
78855;BME280;68206;59.956;30.234;2023-05-20T10:30:16;103117.75;;;20.21;36.55
78855;BME280;68206;59.956;30.234;2023-05-20T10:32:51;103111.41;;;20.24;36.53
78855;BME280;68206;59.956;30.234;2023-05-20T10:35:23;103104.31;;;20.20;36.53
78855;BME280;68206;59.956;30.234;2023-05-20T10:37:53;103107.81;;;20.23;35.92
78855;BME280;68206;59.956;30.234;2023-05-20T10:40:22;103101.47;;;20.24;35.62
78855;BME280;68206;59.956;30.234;2023-05-20T10:42:52;103109.66;;;20.21;35.42
78855;BME280;68206;59.956;30.234;2023-05-20T10:45:28;103102.81;;;20.11;35.62
78855;BME280;68206;59.956;30.234;2023-05-20T10:47:58;103106.50;;;20.07;36.06
78855;BME280;68206;59.956;30.234;2023-05-20T10:50:27;103092.03;;;20.11;35.83
78855;BME280;68206;59.956;30.234;2023-05-20T10:53:02;103088.47;;;20.10;35.69
78855;BME280;68206;59.956;30.234;2023-05-20T10:55:36;103091.53;;;19.98;35.66
78855;BME280;68206;59.956;30.234;2023-05-20T10:58:05;103082.50;;;19.99;35.38
78855;BME280;68206;59.956;30.234;2023-05-20T11:00:35;103092.34;;;20.00;35.14
78855;BME280;68206;59.956;30.234;2023-05-20T11:03:04;103087.81;;;20.02;35.37
78855;BME280;68206;59.956;30.234;2023-05-20T11:05:35;103080.06;;;19.92;34.96
78855;BME280;68206;59.956;30.234;2023-05-20T11:08:05;103089.03;;;19.92;35.00
78855;BME280;68206;59.956;30.234;2023-05-20T11:10:55;103083.56;;;19.94;34.50
78855;BME280;68206;59.956;30.234;2023-05-20T11:13:24;103085.31;;;19.96;34.07
78855;BME280;68206;59.956;30.234;2023-05-20T11:15:54;103086.19;;;19.97;34.04
78855;BME280;68206;59.956;30.234;2023-05-20T11:18:25;103088.03;;;19.95;34.25
78855;BME280;68206;59.956;30.234;2023-05-20T11:20:55;103085.34;;;19.95;33.65
78855;BME280;68206;59.956;30.234;2023-05-20T11:23:25;103079.88;;;19.98;33.57
78855;BME280;68206;59.956;30.234;2023-05-20T11:25:54;103074.38;;;20.01;33.71
78855;BME280;68206;59.956;30.234;2023-05-20T11:28:23;103073.22;;;20.09;33.31
78855;BME280;68206;59.956;30.234;2023-05-20T11:30:51;103073.09;;;20.12;33.21
78855;BME280;68206;59.956;30.234;2023-05-20T11:33:24;103071.13;;;20.18;32.29
78855;BME280;68206;59.956;30.234;2023-05-20T11:35:53;103074.72;;;20.18;31.90
78855;BME280;68206;59.956;30.234;2023-05-20T11:38:21;103069.19;;;20.23;32.02
78855;BME280;68206;59.956;30.234;2023-05-20T11:40:51;103073.97;;;20.42;31.86
78855;BME280;68206;59.956;30.234;2023-05-20T11:43:21;103062.88;;;20.51;31.63
78855;BME280;68206;59.956;30.234;2023-05-20T11:45:52;103059.06;;;20.57;31.10
78855;BME280;68206;59.956;30.234;2023-05-20T11:48:24;103056.13;;;20.65;30.51
78855;BME280;68206;59.956;30.234;2023-05-20T11:50:53;103059.53;;;20.70;30.40
78855;BME280;68206;59.956;30.234;2023-05-20T11:53:23;103063.16;;;20.69;29.93
78855;BME280;68206;59.956;30.234;2023-05-20T11:55:52;103049.59;;;20.72;29.21
78855;BME280;68206;59.956;30.234;2023-05-20T11:58:22;103051.66;;;20.64;28.72
78855;BME280;68206;59.956;30.234;2023-05-20T12:00:51;103052.91;;;20.53;28.35
78855;BME280;68206;59.956;30.234;2023-05-20T12:03:33;103048.25;;;20.59;28.83
78855;BME280;68206;59.956;30.234;2023-05-20T12:06:03;103051.78;;;20.61;28.44
78855;BME280;68206;59.956;30.234;2023-05-20T12:08:33;103048.19;;;20.60;28.69
78855;BME280;68206;59.956;30.234;2023-05-20T12:11:01;103039.81;;;20.68;28.94
78855;BME280;68206;59.956;30.234;2023-05-20T12:13:29;103038.53;;;20.79;29.16
78855;BME280;68206;59.956;30.234;2023-05-20T12:16:01;103041.81;;;20.87;28.67
78855;BME280;68206;59.956;30.234;2023-05-20T12:18:30;103043.72;;;20.85;28.47
78855;BME280;68206;59.956;30.234;2023-05-20T12:21:00;103043.84;;;20.81;27.99
78855;BME280;68206;59.956;30.234;2023-05-20T12:23:28;103027.66;;;20.81;28.03
78855;BME280;68206;59.956;30.234;2023-05-20T12:26:00;103020.53;;;20.80;27.95
78855;BME280;68206;59.956;30.234;2023-05-20T12:28:28;103023.47;;;20.74;27.57
78855;BME280;68206;59.956;30.234;2023-05-20T12:30:57;103017.63;;;20.61;27.62
78855;BME280;68206;59.956;30.234;2023-05-20T12:33:26;103013.03;;;20.63;27.71
78855;BME280;68206;59.956;30.234;2023-05-20T12:35:55;103015.06;;;20.57;27.84
78855;BME280;68206;59.956;30.234;2023-05-20T12:38:24;103008.09;;;20.49;27.68
78855;BME280;68206;59.956;30.234;2023-05-20T12:40:53;103011.75;;;20.48;27.58
78855;BME280;68206;59.956;30.234;2023-05-20T12:43:22;103008.28;;;20.45;27.34
78855;BME280;68206;59.956;30.234;2023-05-20T12:45:50;103009.28;;;20.42;27.18
78855;BME280;68206;59.956;30.234;2023-05-20T12:48:19;103009.28;;;20.42;27.44
78855;BME280;68206;59.956;30.234;2023-05-20T12:50:47;103003.88;;;20.42;27.54
78855;BME280;68206;59.956;30.234;2023-05-20T12:53:15;103005.03;;;20.35;28.15